METAR Data
IDs: Format: Raw Decoded Include TAF

Data at: 0851 UTC 13 Aug 2022

EDLN 130820Z 12006KT 090V150 CAVOK 26/11 Q1017